Downing, Wisconsin
Current Conditions -  °F | °C
As of 11:50 PM on Tuesday 21 Oct 2014 (Local Time) from KLUM Reporting Station
Clear Clear  
Wind Chill: 34°   Ceiling: Unl
Heat Index: 38°   Visibility: 10mi
Dew Point: 35°   Wind: 6mph
Humidity: 87%   Direction: 130°SE
Pressure: 30.24"   Gusts: NA
Location:  45.05°N, 92.13°W
Report Text: KLUM 220450Z AUTO 13005KT 10SM CLR 04/02 A3024 RMK AO2 T00350016
Loading
Personal Weather Stations






























Interactive Weather Map
Tropical Storm Tracking
New forecast layout! Learn more

10-Day Weather Forecast

Advertisements
Track Severe Weather on mobile